sensor_id;sensor_type;location;lat;lon;timestamp;P1;durP1;ratioP1;P2;durP2;ratioP2
7989;SDS011;4040;42.848;23.034;2023-11-21T00:01:06;9.37;;;4.83;;
7989;SDS011;4040;42.848;23.034;2023-11-21T00:06:55;11.33;;;5.40;;
7989;SDS011;4040;42.848;23.034;2023-11-21T00:12:44;16.93;;;7.17;;
7989;SDS011;4040;42.848;23.034;2023-11-21T00:18:36;17.10;;;8.60;;
7989;SDS011;4040;42.848;23.034;2023-11-21T00:24:25;13.23;;;8.03;;
7989;SDS011;4040;42.848;23.034;2023-11-21T00:30:14;10.27;;;6.73;;
7989;SDS011;4040;42.848;23.034;2023-11-21T00:36:05;15.90;;;8.43;;
7989;SDS011;4040;42.848;23.034;2023-11-21T00:41:56;19.50;;;9.10;;
7989;SDS011;4040;42.848;23.034;2023-11-21T00:47:45;6.50;;;4.43;;
7989;SDS011;4040;42.848;23.034;2023-11-21T00:53:35;14.00;;;7.47;;
7989;SDS011;4040;42.848;23.034;2023-11-21T00:59:24;11.90;;;6.30;;
7989;SDS011;4040;42.848;23.034;2023-11-21T01:05:13;12.50;;;6.67;;
7989;SDS011;4040;42.848;23.034;2023-11-21T01:11:04;7.00;;;4.70;;
7989;SDS011;4040;42.848;23.034;2023-11-21T01:16:55;11.67;;;6.20;;
7989;SDS011;4040;42.848;23.034;2023-11-21T01:22:44;11.50;;;5.80;;
7989;SDS011;4040;42.848;23.034;2023-11-21T01:28:47;8.83;;;5.37;;
7989;SDS011;4040;42.848;23.034;2023-11-21T01:34:36;13.80;;;5.00;;
7989;SDS011;4040;42.848;23.034;2023-11-21T01:40:25;9.23;;;4.40;;
7989;SDS011;4040;42.848;23.034;2023-11-21T01:46:17;10.37;;;5.50;;
7989;SDS011;4040;42.848;23.034;2023-11-21T01:52:06;8.10;;;4.33;;
7989;SDS011;4040;42.848;23.034;2023-11-21T01:57:58;8.77;;;3.47;;
7989;SDS011;4040;42.848;23.034;2023-11-21T02:03:48;5.43;;;3.03;;
7989;SDS011;4040;42.848;23.034;2023-11-21T02:09:37;1.90;;;1.60;;
7989;SDS011;4040;42.848;23.034;2023-11-21T02:15:29;3.53;;;2.93;;
7989;SDS011;4040;42.848;23.034;2023-11-21T02:21:20;5.27;;;3.00;;
7989;SDS011;4040;42.848;23.034;2023-11-21T02:27:10;6.27;;;3.23;;
7989;SDS011;4040;42.848;23.034;2023-11-21T02:33:00;10.23;;;3.83;;
7989;SDS011;4040;42.848;23.034;2023-11-21T02:38:49;6.40;;;3.47;;
7989;SDS011;4040;42.848;23.034;2023-11-21T02:44:39;8.93;;;4.37;;
7989;SDS011;4040;42.848;23.034;2023-11-21T02:50:28;10.53;;;5.13;;
7989;SDS011;4040;42.848;23.034;2023-11-21T02:56:16;8.37;;;4.17;;
7989;SDS011;4040;42.848;23.034;2023-11-21T03:02:07;10.67;;;4.40;;
7989;SDS011;4040;42.848;23.034;2023-11-21T03:12:18;6.30;;;4.07;;
7989;SDS011;4040;42.848;23.034;2023-11-21T03:18:09;7.57;;;4.80;;
7989;SDS011;4040;42.848;23.034;2023-11-21T03:23:57;4.83;;;2.60;;
7989;SDS011;4040;42.848;23.034;2023-11-21T03:29:47;5.50;;;3.40;;
7989;SDS011;4040;42.848;23.034;2023-11-21T03:35:38;3.53;;;2.50;;
7989;SDS011;4040;42.848;23.034;2023-11-21T03:41:28;4.43;;;2.80;;
7989;SDS011;4040;42.848;23.034;2023-11-21T03:47:17;5.23;;;3.57;;
7989;SDS011;4040;42.848;23.034;2023-11-21T03:53:08;13.37;;;4.60;;
7989;SDS011;4040;42.848;23.034;2023-11-21T03:58:57;13.80;;;5.13;;
7989;SDS011;4040;42.848;23.034;2023-11-21T04:04:46;12.23;;;5.53;;
7989;SDS011;4040;42.848;23.034;2023-11-21T04:11:07;18.37;;;8.53;;
7989;SDS011;4040;42.848;23.034;2023-11-21T04:16:58;12.13;;;5.20;;
7989;SDS011;4040;42.848;23.034;2023-11-21T04:22:47;5.13;;;3.33;;
7989;SDS011;4040;42.848;23.034;2023-11-21T04:28:38;4.83;;;2.67;;
7989;SDS011;4040;42.848;23.034;2023-11-21T04:34:26;4.10;;;2.50;;
7989;SDS011;4040;42.848;23.034;2023-11-21T04:40:17;3.87;;;3.13;;
7989;SDS011;4040;42.848;23.034;2023-11-21T04:46:09;6.63;;;4.77;;
7989;SDS011;4040;42.848;23.034;2023-11-21T04:51:57;14.20;;;7.53;;
7989;SDS011;4040;42.848;23.034;2023-11-21T04:57:46;9.83;;;5.50;;
7989;SDS011;4040;42.848;23.034;2023-11-21T05:03:37;6.43;;;3.53;;
7989;SDS011;4040;42.848;23.034;2023-11-21T05:09:26;8.20;;;5.47;;
7989;SDS011;4040;42.848;23.034;2023-11-21T05:15:18;27.67;;;10.37;;
7989;SDS011;4040;42.848;23.034;2023-11-21T05:21:09;18.30;;;8.77;;
7989;SDS011;4040;42.848;23.034;2023-11-21T05:26:58;17.70;;;8.07;;
7989;SDS011;4040;42.848;23.034;2023-11-21T05:32:47;8.40;;;3.60;;
7989;SDS011;4040;42.848;23.034;2023-11-21T05:38:37;10.20;;;5.27;;
7989;SDS011;4040;42.848;23.034;2023-11-21T05:44:26;6.37;;;4.37;;
7989;SDS011;4040;42.848;23.034;2023-11-21T05:50:16;14.20;;;8.07;;
7989;SDS011;4040;42.848;23.034;2023-11-21T05:56:07;22.83;;;9.83;;
7989;SDS011;4040;42.848;23.034;2023-11-21T06:01:56;9.00;;;4.83;;
7989;SDS011;4040;42.848;23.034;2023-11-21T06:07:46;16.23;;;6.17;;
7989;SDS011;4040;42.848;23.034;2023-11-21T06:17:58;30.17;;;11.83;;
7989;SDS011;4040;42.848;23.034;2023-11-21T06:23:47;24.20;;;12.20;;
7989;SDS011;4040;42.848;23.034;2023-11-21T06:29:36;26.90;;;13.33;;
7989;SDS011;4040;42.848;23.034;2023-11-21T06:35:26;14.70;;;8.73;;
7989;SDS011;4040;42.848;23.034;2023-11-21T06:41:17;11.90;;;6.73;;
7989;SDS011;4040;42.848;23.034;2023-11-21T06:47:05;9.93;;;6.87;;
7989;SDS011;4040;42.848;23.034;2023-11-21T06:52:56;13.93;;;6.70;;
7989;SDS011;4040;42.848;23.034;2023-11-21T06:58:45;9.00;;;5.47;;
7989;SDS011;4040;42.848;23.034;2023-11-21T07:04:34;12.47;;;6.90;;
7989;SDS011;4040;42.848;23.034;2023-11-21T07:10:25;8.33;;;4.80;;
7989;SDS011;4040;42.848;23.034;2023-11-21T07:20:35;7.27;;;4.47;;
7989;SDS011;4040;42.848;23.034;2023-11-21T07:26:25;6.37;;;4.40;;
7989;SDS011;4040;42.848;23.034;2023-11-21T07:32:14;5.37;;;3.20;;
7989;SDS011;4040;42.848;23.034;2023-11-21T07:38:03;7.57;;;4.23;;
7989;SDS011;4040;42.848;23.034;2023-11-21T07:43:54;8.63;;;5.37;;
7989;SDS011;4040;42.848;23.034;2023-11-21T07:49:43;9.80;;;5.67;;
7989;SDS011;4040;42.848;23.034;2023-11-21T07:55:33;14.40;;;7.13;;
7989;SDS011;4040;42.848;23.034;2023-11-21T08:01:24;15.97;;;9.47;;
7989;SDS011;4040;42.848;23.034;2023-11-21T08:07:15;9.17;;;6.43;;
7989;SDS011;4040;42.848;23.034;2023-11-21T08:13:03;13.97;;;7.17;;
7989;SDS011;4040;42.848;23.034;2023-11-21T08:23:19;23.13;;;11.57;;
7989;SDS011;4040;42.848;23.034;2023-11-21T08:29:12;18.60;;;11.13;;
7989;SDS011;4040;42.848;23.034;2023-11-21T08:35:01;30.37;;;14.67;;
7989;SDS011;4040;42.848;23.034;2023-11-21T08:40:51;27.97;;;15.97;;
7989;SDS011;4040;42.848;23.034;2023-11-21T08:46:41;21.17;;;11.53;;
7989;SDS011;4040;42.848;23.034;2023-11-21T08:52:31;16.20;;;9.63;;
7989;SDS011;4040;42.848;23.034;2023-11-21T08:58:21;11.43;;;7.70;;
7989;SDS011;4040;42.848;23.034;2023-11-21T09:04:09;13.67;;;9.13;;
7989;SDS011;4040;42.848;23.034;2023-11-21T09:09:59;14.73;;;8.33;;
7989;SDS011;4040;42.848;23.034;2023-11-21T09:15:49;13.53;;;7.77;;
7989;SDS011;4040;42.848;23.034;2023-11-21T09:26:00;12.60;;;7.37;;
7989;SDS011;4040;42.848;23.034;2023-11-21T09:31:50;12.20;;;8.53;;
7989;SDS011;4040;42.848;23.034;2023-11-21T09:37:41;12.07;;;9.13;;
7989;SDS011;4040;42.848;23.034;2023-11-21T09:43:32;11.27;;;7.00;;
7989;SDS011;4040;42.848;23.034;2023-11-21T09:49:23;16.17;;;7.87;;
7989;SDS011;4040;42.848;23.034;2023-11-21T09:55:14;10.67;;;6.63;;
7989;SDS011;4040;42.848;23.034;2023-11-21T10:01:07;9.57;;;6.43;;
7989;SDS011;4040;42.848;23.034;2023-11-21T10:06:58;6.90;;;4.73;;
7989;SDS011;4040;42.848;23.034;2023-11-21T10:12:49;9.70;;;6.17;;
7989;SDS011;4040;42.848;23.034;2023-11-21T10:18:39;7.70;;;4.97;;
7989;SDS011;4040;42.848;23.034;2023-11-21T10:21:07;6.83;;;5.60;;
7989;SDS011;4040;42.848;23.034;2023-11-21T10:26:57;9.87;;;6.60;;
7989;SDS011;4040;42.848;23.034;2023-11-21T10:32:46;13.00;;;8.23;;
7989;SDS011;4040;42.848;23.034;2023-11-21T10:38:41;9.87;;;6.50;;
7989;SDS011;4040;42.848;23.034;2023-11-21T10:44:33;23.10;;;11.83;;
7989;SDS011;4040;42.848;23.034;2023-11-21T10:50:22;19.43;;;12.53;;
7989;SDS011;4040;42.848;23.034;2023-11-21T10:56:13;10.23;;;6.67;;
7989;SDS011;4040;42.848;23.034;2023-11-21T11:02:07;13.60;;;7.03;;
7989;SDS011;4040;42.848;23.034;2023-11-21T11:08:08;15.83;;;8.07;;
7989;SDS011;4040;42.848;23.034;2023-11-21T11:13:59;24.43;;;11.43;;
7989;SDS011;4040;42.848;23.034;2023-11-21T11:19:51;9.03;;;6.60;;
7989;SDS011;4040;42.848;23.034;2023-11-21T11:25:53;14.10;;;8.23;;
7989;SDS011;4040;42.848;23.034;2023-11-21T11:31:55;15.50;;;7.33;;
7989;SDS011;4040;42.848;23.034;2023-11-21T11:37:55;12.73;;;7.23;;
7989;SDS011;4040;42.848;23.034;2023-11-21T11:43:44;10.77;;;7.60;;
7989;SDS011;4040;42.848;23.034;2023-11-21T11:49:33;17.37;;;10.43;;
7989;SDS011;4040;42.848;23.034;2023-11-21T11:55:24;16.53;;;9.70;;
7989;SDS011;4040;42.848;23.034;2023-11-21T12:01:18;42.63;;;15.23;;
7989;SDS011;4040;42.848;23.034;2023-11-21T12:07:07;24.40;;;13.20;;
7989;SDS011;4040;42.848;23.034;2023-11-21T12:09:35;20.43;;;13.17;;
7989;SDS011;4040;42.848;23.034;2023-11-21T12:15:27;41.70;;;20.50;;
7989;SDS011;4040;42.848;23.034;2023-11-21T12:21:17;40.60;;;23.67;;
7989;SDS011;4040;42.848;23.034;2023-11-21T12:27:06;18.30;;;11.93;;
7989;SDS011;4040;42.848;23.034;2023-11-21T12:32:57;18.33;;;12.27;;
7989;SDS011;4040;42.848;23.034;2023-11-21T12:38:47;25.30;;;11.43;;
7989;SDS011;4040;42.848;23.034;2023-11-21T12:41:15;18.07;;;10.73;;
7989;SDS011;4040;42.848;23.034;2023-11-21T12:47:05;24.17;;;12.13;;
7989;SDS011;4040;42.848;23.034;2023-11-21T12:52:59;23.07;;;10.90;;
7989;SDS011;4040;42.848;23.034;2023-11-21T12:58:53;20.23;;;11.97;;
7989;SDS011;4040;42.848;23.034;2023-11-21T13:04:43;22.00;;;13.10;;
7989;SDS011;4040;42.848;23.034;2023-11-21T13:10:41;37.17;;;20.70;;
7989;SDS011;4040;42.848;23.034;2023-11-21T13:16:33;42.70;;;22.20;;
7989;SDS011;4040;42.848;23.034;2023-11-21T13:22:22;48.13;;;26.47;;
7989;SDS011;4040;42.848;23.034;2023-11-21T13:28:13;54.73;;;28.07;;
7989;SDS011;4040;42.848;23.034;2023-11-21T13:34:03;42.17;;;21.70;;
7989;SDS011;4040;42.848;23.034;2023-11-21T13:39:55;32.00;;;17.70;;
7989;SDS011;4040;42.848;23.034;2023-11-21T13:42:23;26.43;;;16.73;;
7989;SDS011;4040;42.848;23.034;2023-11-21T13:48:16;33.83;;;14.50;;
7989;SDS011;4040;42.848;23.034;2023-11-21T13:54:11;42.27;;;19.20;;
7989;SDS011;4040;42.848;23.034;2023-11-21T14:00:00;48.03;;;23.97;;
7989;SDS011;4040;42.848;23.034;2023-11-21T14:05:50;44.50;;;23.47;;
7989;SDS011;4040;42.848;23.034;2023-11-21T14:11:39;136.47;;;59.30;;
7989;SDS011;4040;42.848;23.034;2023-11-21T14:17:28;90.50;;;41.00;;
7989;SDS011;4040;42.848;23.034;2023-11-21T14:26:50;92.27;;;42.03;;
7989;SDS011;4040;42.848;23.034;2023-11-21T14:32:39;37.20;;;20.53;;
7989;SDS011;4040;42.848;23.034;2023-11-21T14:38:28;48.90;;;28.63;;
7989;SDS011;4040;42.848;23.034;2023-11-21T14:44:19;55.23;;;32.03;;
7989;SDS011;4040;42.848;23.034;2023-11-21T14:50:11;43.47;;;27.03;;
7989;SDS011;4040;42.848;23.034;2023-11-21T14:56:19;58.30;;;33.10;;
7989;SDS011;4040;42.848;23.034;2023-11-21T15:02:14;61.23;;;33.73;;
7989;SDS011;4040;42.848;23.034;2023-11-21T15:08:07;73.00;;;43.77;;
7989;SDS011;4040;42.848;23.034;2023-11-21T15:14:07;106.47;;;59.27;;
7989;SDS011;4040;42.848;23.034;2023-11-21T15:19:57;115.07;;;65.10;;
7989;SDS011;4040;42.848;23.034;2023-11-21T15:30:08;78.10;;;46.63;;
7989;SDS011;4040;42.848;23.034;2023-11-21T15:35:59;94.63;;;52.47;;
7989;SDS011;4040;42.848;23.034;2023-11-21T15:41:49;154.90;;;74.30;;
7989;SDS011;4040;42.848;23.034;2023-11-21T15:47:38;113.40;;;64.57;;
7989;SDS011;4040;42.848;23.034;2023-11-21T15:53:28;158.77;;;74.67;;
7989;SDS011;4040;42.848;23.034;2023-11-21T15:59:18;115.63;;;56.77;;
7989;SDS011;4040;42.848;23.034;2023-11-21T16:05:06;145.93;;;81.13;;
7989;SDS011;4040;42.848;23.034;2023-11-21T16:10:57;533.90;;;306.73;;
7989;SDS011;4040;42.848;23.034;2023-11-21T16:16:46;146.63;;;91.83;;
7989;SDS011;4040;42.848;23.034;2023-11-21T16:22:35;60.67;;;32.80;;
7989;SDS011;4040;42.848;23.034;2023-11-21T16:32:47;75.73;;;35.73;;
7989;SDS011;4040;42.848;23.034;2023-11-21T16:38:36;40.97;;;26.60;;
7989;SDS011;4040;42.848;23.034;2023-11-21T16:44:25;58.73;;;34.40;;
7989;SDS011;4040;42.848;23.034;2023-11-21T16:50:15;61.33;;;31.63;;
7989;SDS011;4040;42.848;23.034;2023-11-21T16:56:05;69.20;;;36.53;;
7989;SDS011;4040;42.848;23.034;2023-11-21T17:01:54;29.67;;;18.37;;
7989;SDS011;4040;42.848;23.034;2023-11-21T17:07:44;35.83;;;19.23;;
7989;SDS011;4040;42.848;23.034;2023-11-21T17:13:34;36.40;;;21.17;;
7989;SDS011;4040;42.848;23.034;2023-11-21T17:19:23;35.47;;;19.57;;
7989;SDS011;4040;42.848;23.034;2023-11-21T17:25:13;49.40;;;26.07;;
7989;SDS011;4040;42.848;23.034;2023-11-21T17:35:24;71.63;;;33.33;;
7989;SDS011;4040;42.848;23.034;2023-11-21T17:41:14;45.67;;;23.80;;
7989;SDS011;4040;42.848;23.034;2023-11-21T17:47:07;49.63;;;25.53;;
7989;SDS011;4040;42.848;23.034;2023-11-21T17:52:57;52.43;;;24.50;;
7989;SDS011;4040;42.848;23.034;2023-11-21T17:58:48;36.67;;;23.13;;
7989;SDS011;4040;42.848;23.034;2023-11-21T18:04:40;63.20;;;34.70;;
7989;SDS011;4040;42.848;23.034;2023-11-21T18:10:29;70.60;;;38.10;;
7989;SDS011;4040;42.848;23.034;2023-11-21T18:16:20;45.03;;;25.80;;
7989;SDS011;4040;42.848;23.034;2023-11-21T18:22:08;152.83;;;57.83;;
7989;SDS011;4040;42.848;23.034;2023-11-21T18:27:57;98.33;;;50.87;;
7989;SDS011;4040;42.848;23.034;2023-11-21T18:38:09;104.67;;;46.07;;
7989;SDS011;4040;42.848;23.034;2023-11-21T18:43:58;85.00;;;40.97;;
7989;SDS011;4040;42.848;23.034;2023-11-21T18:49:48;83.57;;;44.97;;
7989;SDS011;4040;42.848;23.034;2023-11-21T18:55:38;133.43;;;62.07;;
7989;SDS011;4040;42.848;23.034;2023-11-21T19:01:29;120.57;;;56.23;;
7989;SDS011;4040;42.848;23.034;2023-11-21T19:07:18;108.40;;;50.87;;
7989;SDS011;4040;42.848;23.034;2023-11-21T19:13:10;107.23;;;52.10;;
7989;SDS011;4040;42.848;23.034;2023-11-21T19:18:58;106.43;;;48.47;;
7989;SDS011;4040;42.848;23.034;2023-11-21T19:24:48;103.90;;;51.27;;
7989;SDS011;4040;42.848;23.034;2023-11-21T19:30:38;85.60;;;40.80;;
7989;SDS011;4040;42.848;23.034;2023-11-21T19:40:50;80.13;;;41.53;;
7989;SDS011;4040;42.848;23.034;2023-11-21T19:46:41;79.20;;;38.77;;
7989;SDS011;4040;42.848;23.034;2023-11-21T19:52:29;81.83;;;42.53;;
7989;SDS011;4040;42.848;23.034;2023-11-21T19:58:18;76.73;;;38.30;;
7989;SDS011;4040;42.848;23.034;2023-11-21T20:04:09;97.33;;;47.60;;
7989;SDS011;4040;42.848;23.034;2023-11-21T20:09:58;84.73;;;42.67;;
7989;SDS011;4040;42.848;23.034;2023-11-21T20:15:47;53.03;;;27.43;;
7989;SDS011;4040;42.848;23.034;2023-11-21T20:21:37;51.17;;;25.83;;
7989;SDS011;4040;42.848;23.034;2023-11-21T20:27:26;53.60;;;24.87;;
7989;SDS011;4040;42.848;23.034;2023-11-21T20:33:16;59.13;;;30.33;;
7989;SDS011;4040;42.848;23.034;2023-11-21T20:43:29;63.97;;;33.13;;
7989;SDS011;4040;42.848;23.034;2023-11-21T20:49:17;52.77;;;26.73;;
7989;SDS011;4040;42.848;23.034;2023-11-21T20:55:06;118.70;;;57.07;;
7989;SDS011;4040;42.848;23.034;2023-11-21T21:00:57;67.60;;;32.97;;
7989;SDS011;4040;42.848;23.034;2023-11-21T21:06:46;62.87;;;34.13;;
7989;SDS011;4040;42.848;23.034;2023-11-21T21:12:35;68.17;;;36.17;;
7989;SDS011;4040;42.848;23.034;2023-11-21T21:18:26;83.00;;;40.33;;
7989;SDS011;4040;42.848;23.034;2023-11-21T21:24:15;59.27;;;33.33;;
7989;SDS011;4040;42.848;23.034;2023-11-21T21:30:04;68.13;;;32.07;;
7989;SDS011;4040;42.848;23.034;2023-11-21T21:35:57;34.87;;;21.90;;
7989;SDS011;4040;42.848;23.034;2023-11-21T21:46:08;39.47;;;23.87;;
7989;SDS011;4040;42.848;23.034;2023-11-21T21:51:59;33.70;;;20.00;;
7989;SDS011;4040;42.848;23.034;2023-11-21T22:03:56;36.37;;;18.90;;
7989;SDS011;4040;42.848;23.034;2023-11-21T22:09:48;36.87;;;20.33;;
7989;SDS011;4040;42.848;23.034;2023-11-21T22:15:38;33.63;;;20.00;;
7989;SDS011;4040;42.848;23.034;2023-11-21T22:21:27;47.03;;;23.20;;
7989;SDS011;4040;42.848;23.034;2023-11-21T22:27:18;28.97;;;17.87;;
7989;SDS011;4040;42.848;23.034;2023-11-21T22:33:07;25.77;;;16.03;;
7989;SDS011;4040;42.848;23.034;2023-11-21T22:38:56;33.30;;;17.37;;
7989;SDS011;4040;42.848;23.034;2023-11-21T22:49:08;32.60;;;19.23;;
7989;SDS011;4040;42.848;23.034;2023-11-21T22:54:59;28.67;;;16.80;;
7989;SDS011;4040;42.848;23.034;2023-11-21T23:08:31;34.40;;;19.07;;
7989;SDS011;4040;42.848;23.034;2023-11-21T23:14:20;35.97;;;19.00;;
7989;SDS011;4040;42.848;23.034;2023-11-21T23:20:12;29.57;;;16.80;;
7989;SDS011;4040;42.848;23.034;2023-11-21T23:26:08;32.00;;;18.00;;
7989;SDS011;4040;42.848;23.034;2023-11-21T23:31:57;35.60;;;21.13;;
7989;SDS011;4040;42.848;23.034;2023-11-21T23:37:46;38.13;;;19.47;;
7989;SDS011;4040;42.848;23.034;2023-11-21T23:43:36;24.90;;;16.40;;
7989;SDS011;4040;42.848;23.034;2023-11-21T23:49:25;34.83;;;21.07;;
7989;SDS011;4040;42.848;23.034;2023-11-21T23:55:15;43.97;;;19.87;;
